Flight Track Log - Related Links

Times and Time Zones

All times are in EDT time to prevent confusion due to time zone crossing. See the CES5390 flight status page for this flight to view local times or setup timezone preferences in your user account.

Time Position Orientation Groundspeed Altitude Reporting Facility
EDT Latitude Longitude Course Direction KTS MPH feet Rate Location/Type
Sat 11:12:10 PM 31.6530 118.3330 95° East 461 531 26,600  Level FlightAware
Sat 11:13:13 PM 31.6410 118.4870 95° East 460 529 26,600  Level FlightAware
Sat 11:14:01 PM 31.6340 118.5890 95° East 460 529 26,600  Level FlightAware
Sat 11:15:01 PM 31.6230 118.7460 95° East 459 528 26,600  Level FlightAware
Sat 11:15:37 PM 31.6170 118.8230 95° East 459 528 26,600  Level FlightAware
Sat 11:16:25 PM 31.6100 118.9240 95° East 459 528 26,600  Level FlightAware
Sat 11:17:25 PM 31.6000 119.0510 95° East 459 528 26,600  Level FlightAware
Sat 11:18:13 PM 31.5930 119.1520 95° East 459 528 26,600 -1,222 Level FlightAware
Sat 11:20:00 PM 31.5000 119.6865 101° East  Level Estimated
Sat 11:21:00 PM 31.4469 119.9857 102° East  Level Estimated
Sat 11:22:00 PM 31.3932 120.2847 102° East  Level Estimated
Sat 11:23:00 PM 31.3387 120.5832 102° East  Level Estimated
Sat 11:24:00 PM 31.2835 120.8814 102° East  Level Estimated
Sat 11:25:00 PM 31.2276 121.1793 102° East  Level Estimated
Sat 11:26:00 PM 31.1979 121.3363 102° East  Level Estimated
Sat 11:27:00 PM 31.1979 121.3363 350° North  Level Estimated
Sat 11:27:29 PM 31.5510 120.4500 350° North 324 373 14,300  Level FlightAware
Sat 11:28:19 PM 31.5270 120.5320 109° East 316 364 13,100 -1,453 Descending FlightAware
Sat 11:29:04 PM 31.5050 120.6040 110° East 308 354 12,000 -900 Descending FlightAware
Sat 11:29:59 PM 31.4810 120.6850 109° East 278 320 11,600 -1,020 Descending FlightAware
Sat 11:30:44 PM 31.4620 120.7500 109° East 285 328 10,300 -1,457 Descending FlightAware
Sat 11:31:09 PM 31.4510 120.7860 110° East 273 314 9,900 -1,067 Descending FlightAware
Sat 11:31:29 PM 31.4420 120.8140 111° Southeast 266 306 9,500 -1,371 Descending FlightAware
Sat 11:31:44 PM 31.4360 120.8340 109° East 263 303 9,100 -1,543 Descending FlightAware
Sat 11:32:04 PM 31.4280 120.8600 110° East 263 303 8,600 -1,650 Descending FlightAware
Sat 11:32:24 PM 31.4190 120.8890 110° East 263 303 8,000 -1,467 Descending FlightAware
Sat 11:32:49 PM 31.4090 120.9220 110° East 258 297 7,500 -1,200 Descending FlightAware
Sat 11:33:04 PM 31.4030 120.9400 111° Southeast 254 292 7,200 -840 Descending FlightAware
Sat 11:33:39 PM 31.3900 120.9830 109° East 237 273 6,800 -500 Descending FlightAware
Sat 11:34:04 PM 31.3810 121.0130 109° East 219 252 6,700 -360 Descending FlightAware
Sat 11:34:29 PM 31.3740 121.0380 108° East 210 242 6,500 -600 Descending FlightAware
Sat 11:34:54 PM 31.3660 121.0620 111° Southeast 207 238 6,200 -800 Descending FlightAware
Sat 11:35:29 PM 31.3560 121.1010 107° East 184 212 5,700 -600 Descending FlightAware
Sat 11:35:54 PM 31.3630 121.1240 70° East 180 207 5,600 -533 Descending FlightAware
Sat 11:36:14 PM 31.3710 121.1420 62° Northeast 179 206 5,300 -933 Descending FlightAware
Sat 11:36:39 PM 31.3800 121.1630 63° Northeast 177 204 4,900 -1,091 Descending FlightAware
Sat 11:37:09 PM 31.3910 121.1890 64° Northeast 177 204 4,300 -1,108 Descending FlightAware
Sat 11:37:44 PM 31.4060 121.2170 58° Northeast 177 204 3,700 -900 Descending FlightAware
Sat 11:38:09 PM 31.4180 121.2350 52° Northeast 175 201 3,400 -686 Descending FlightAware
Sat 11:38:19 PM 31.4240 121.2430 49° Northeast 169 194 3,300 -600 Descending FlightAware
Sat 11:38:59 PM 31.4420 121.2700 52° Northeast 164 189 2,900 -600 Descending FlightAware
Sat 11:39:19 PM 31.4490 121.2860 63° Northeast 163 188 2,700 -545 Descending FlightAware
Sat 11:39:54 PM 31.4330 121.3090 129° Southeast 153 176 2,400 -600 Descending FlightAware
Sat 11:40:19 PM 31.4180 121.3170 156° South 156 180 2,100 -655 Descending FlightAware
Sat 11:40:49 PM 31.3960 121.3250 163° South 153 176 1,800 -533 Descending FlightAware
Sat 11:41:04 PM 31.3890 121.3260 173° South 154 177 1,700 -612 Descending FlightAware
Sat 11:41:38 PM 31.3610 121.3280 177° South 157 181 1,300 -444 Descending FlightAware
Sat 11:41:58 PM 31.3470 121.3280 180° South 156 180 1,300 -133 Level FlightAware
Sat 11:42:23 PM 31.3280 121.3290 177° South 161 185 1,200 -109 Descending FlightAware
Sat 11:42:53 PM 31.3070 121.3300 178° South 145 167 1,200  Level FlightAware
Sat 11:43:18 PM 31.2910 121.3310 177° South 138 159 1,200 -360 Level FlightAware
Sat 11:43:43 PM 31.2740 121.3320 177° South 140 161 900 -600 Descending FlightAware
Sat 11:44:08 PM 31.2590 121.3330 177° South 137 158 700 -600 Descending FlightAware
Sat 11:44:23 PM 31.2490 121.3330 180° South 135 155 500 -960 Descending FlightAware
Sat 11:44:33 PM 31.2430 121.3340 172° South 134 154 300 -1,200 Descending FlightAware
Sat 11:45:09 PM 31.2240 121.3350 177° South 129 148 -500 Descending FlightAware
Sat 11:45:25 PM 31.2120 121.3360 176° South 135 155  Level FlightAware
Sat 11:45:51 PM 31.1980 121.3360 180° South 135 155  Level FlightAware
Sat 11:48:00 PM 31.1979 121.3363 115° Southeast  Level Estimated
Sat 11:49:00 PM 31.1979 121.3363 350° North  Level Estimated
Sat 11:50:00 PM 31.1979 121.3363 350° North  Level Estimated
Sat 11:51:00 PM 31.1979 121.3363 350° North  Level Estimated
Sat 11:52:00 PM 31.1979 121.3363 350° North  Level Estimated
Sat 11:53:00 PM 31.1979 121.3363 350° North  Level Estimated
Sat 11:54:00 PM 31.1979 121.3363 350° North  Level Estimated
Sat 11:55:00 PM 31.1979 121.3363 350° North  Level Estimated
Sat 11:56:00 PM 31.1979 121.3363 350° North  Level Estimated
Sat 11:57:00 PM 31.1979 121.3363 350° North  Level Estimated
Sat 11:58:00 PM 31.1979 121.3363 350° North  Level Estimated
Sat 11:59:00 PM 31.1979 121.3363 350° North  Level Estimated
Sun 12:00:00 AM 31.1979 121.3363 350° North  Level Estimated

Login

Don't have an account? Register now (free) for customized features, flight alerts, and more!